createdAt,value
2023-03-02T00:02:29.739Z,43.00
2023-03-02T00:07:38.262Z,44.40
2023-03-02T00:13:52.353Z,43.00
2023-03-02T00:19:44.971Z,41.70
2023-03-02T00:24:53.127Z,41.00
2023-03-02T00:30:35.935Z,42.00
2023-03-02T00:36:03.103Z,42.70
2023-03-02T00:41:29.389Z,42.90
2023-03-02T00:47:03.042Z,41.80
2023-03-02T00:52:08.666Z,41.20
2023-03-02T00:57:12.072Z,40.60
2023-03-02T01:02:30.325Z,41.50
2023-03-02T01:07:42.342Z,41.90
2023-03-02T01:13:06.586Z,40.80
2023-03-02T01:18:33.065Z,41.40
2023-03-02T01:23:46.748Z,41.40
2023-03-02T01:28:55.576Z,41.80
2023-03-02T01:34:01.751Z,42.30
2023-03-02T01:39:07.572Z,42.90
2023-03-02T01:44:57.459Z,43.10
2023-03-02T01:51:11.265Z,40.30
2023-03-02T01:56:31.329Z,39.80
2023-03-02T02:02:17.740Z,42.70
2023-03-02T02:07:21.823Z,42.90
2023-03-02T02:12:38.605Z,45.00
2023-03-02T02:18:13.458Z,44.70
2023-03-02T02:24:09.776Z,46.00
2023-03-02T02:29:23.037Z,50.60
2023-03-02T02:34:42.656Z,47.60
2023-03-02T02:39:49.101Z,43.90
2023-03-02T02:45:44.546Z,35.40
2023-03-02T02:50:48.271Z,30.10
2023-03-02T02:56:00.275Z,28.70
2023-03-02T03:01:07.151Z,28.40
2023-03-02T03:06:49.176Z,28.00
2023-03-02T03:12:01.423Z,28.80
2023-03-02T03:17:13.926Z,27.70
2023-03-02T03:22:26.454Z,26.90
2023-03-02T03:27:30.394Z,28.00
2023-03-02T03:32:54.041Z,27.10
2023-03-02T03:37:57.769Z,27.90
2023-03-02T03:43:04.961Z,26.80
2023-03-02T03:48:08.860Z,26.00
2023-03-02T03:53:15.577Z,26.70
2023-03-02T03:58:24.992Z,26.60
2023-03-02T04:04:11.393Z,27.50
2023-03-02T04:09:38.142Z,25.50
2023-03-02T04:14:54.350Z,27.80
2023-03-02T04:19:58.801Z,25.90
2023-03-02T04:25:24.519Z,26.50
2023-03-02T04:30:33.255Z,26.30
2023-03-02T04:35:46.676Z,27.80
2023-03-02T04:41:03.214Z,26.50
2023-03-02T04:46:15.771Z,27.30
2023-03-02T04:51:32.630Z,27.60
2023-03-02T04:57:17.371Z,28.00
2023-03-02T05:02:33.893Z,28.00
2023-03-02T05:07:44.796Z,28.60
2023-03-02T05:13:08.966Z,29.80
2023-03-02T05:18:14.865Z,29.40
2023-03-02T05:23:34.794Z,29.20
2023-03-02T05:28:38.749Z,29.10
2023-03-02T05:33:55.303Z,29.00
2023-03-02T05:39:42.734Z,28.60
2023-03-02T05:45:06.385Z,31.10
2023-03-02T05:50:53.365Z,30.40
2023-03-02T05:56:22.468Z,31.60
2023-03-02T06:01:36.881Z,31.40
2023-03-02T06:06:47.613Z,33.20
2023-03-02T06:12:01.586Z,33.80
2023-03-02T06:17:29.206Z,34.50
2023-03-02T06:22:53.153Z,34.20
2023-03-02T06:28:02.101Z,34.70
2023-03-02T06:33:21.318Z,32.20
2023-03-02T06:38:27.784Z,33.90
2023-03-02T06:44:01.728Z,33.70
2023-03-02T06:49:19.341Z,34.50
2023-03-02T06:54:24.056Z,36.30
2023-03-02T06:59:27.761Z,36.90
2023-03-02T07:04:48.947Z,36.30
2023-03-02T07:09:52.320Z,36.90
2023-03-02T07:14:55.860Z,36.20
2023-03-02T07:19:59.512Z,34.70
2023-03-02T07:25:13.690Z,35.40
2023-03-02T07:30:32.633Z,35.50
2023-03-02T07:35:36.073Z,40.80
2023-03-02T07:40:43.071Z,44.00
2023-03-02T07:45:46.668Z,42.70
2023-03-02T07:50:50.035Z,39.20
2023-03-02T07:56:10.845Z,38.90
2023-03-02T08:01:14.225Z,40.80
2023-03-02T08:06:27.543Z,42.80
2023-03-02T08:11:51.143Z,40.70
2023-03-02T08:17:10.704Z,39.50
2023-03-02T08:22:21.456Z,39.30
2023-03-02T08:27:32.837Z,38.30
2023-03-02T08:33:07.472Z,42.00
2023-03-02T08:38:13.705Z,38.40
2023-03-02T08:43:17.423Z,36.30
2023-03-02T08:48:21.724Z,36.50
2023-03-02T08:53:49.828Z,34.60
2023-03-02T08:59:14.185Z,31.60
2023-03-02T09:05:01.419Z,32.90
2023-03-02T09:10:10.457Z,30.90
2023-03-02T09:15:13.938Z,32.10
2023-03-02T09:20:32.283Z,27.50
2023-03-02T09:25:35.656Z,25.90
2023-03-02T09:30:42.129Z,26.40
2023-03-02T09:35:46.790Z,26.20
2023-03-02T09:41:04.060Z,15.70
2023-03-02T09:46:34.935Z,15.30
2023-03-02T09:52:04.270Z,15.10
2023-03-02T09:57:36.330Z,17.80
2023-03-02T10:03:22.688Z,8.80
2023-03-02T10:08:34.478Z,10.20
2023-03-02T10:13:56.123Z,11.50
2023-03-02T10:20:00.217Z,8.30
2023-03-02T10:26:09.998Z,8.10
2023-03-02T10:31:52.967Z,8.20
2023-03-02T10:37:02.353Z,6.70
2023-03-02T10:42:23.911Z,7.70
2023-03-02T10:47:29.100Z,7.40
2023-03-02T10:52:32.624Z,7.40
2023-03-02T10:57:38.839Z,5.70
2023-03-02T11:02:53.609Z,6.20
2023-03-02T11:08:11.562Z,6.70
2023-03-02T11:13:28.584Z,6.60
2023-03-02T11:18:46.104Z,8.10
2023-03-02T11:24:21.894Z,6.00
2023-03-02T11:29:45.696Z,5.20
2023-03-02T11:35:00.603Z,6.60
2023-03-02T11:40:16.437Z,6.10
2023-03-02T11:45:30.575Z,6.20
2023-03-02T11:50:41.298Z,7.80
2023-03-02T11:55:48.648Z,8.60
2023-03-02T12:00:55.875Z,7.50
2023-03-02T12:06:11.123Z,8.70
2023-03-02T12:11:20.404Z,8.80
2023-03-02T12:16:38.896Z,8.10
2023-03-02T12:22:05.781Z,8.50
2023-03-02T12:27:20.979Z,8.20
2023-03-02T12:32:33.491Z,8.60
2023-03-02T12:38:19.294Z,8.30
2023-03-02T12:49:30.294Z,9.40
2023-03-02T12:54:36.928Z,9.10
2023-03-02T12:59:40.711Z,8.40
2023-03-02T13:05:07.438Z,9.60
2023-03-02T13:11:03.520Z,8.80
2023-03-02T13:16:32.546Z,8.40
2023-03-02T13:22:12.477Z,8.30
2023-03-02T13:28:01.622Z,10.10
2023-03-02T13:33:26.869Z,11.40
2023-03-02T13:38:40.442Z,10.00
2023-03-02T13:44:21.512Z,10.20
2023-03-02T13:49:37.833Z,11.20
2023-03-02T13:54:44.116Z,13.10
2023-03-02T13:59:48.309Z,13.20
2023-03-02T14:05:22.861Z,12.90
2023-03-02T14:10:50.550Z,13.60
2023-03-02T14:15:53.979Z,15.30
2023-03-02T14:21:00.231Z,15.30
2023-03-02T14:26:34.930Z,14.60
2023-03-02T14:32:07.413Z,13.70
2023-03-02T14:37:16.879Z,15.40
2023-03-02T14:42:21.520Z,16.10
2023-03-02T14:48:05.358Z,17.90
2023-03-02T14:53:30.735Z,20.00
2023-03-02T14:58:37.720Z,18.50
2023-03-02T15:03:41.105Z,17.30
2023-03-02T15:08:49.230Z,17.50
2023-03-02T15:13:52.696Z,17.00
2023-03-02T15:18:59.051Z,18.70
2023-03-02T15:24:02.583Z,19.50
2023-03-02T15:29:15.141Z,16.70
2023-03-02T15:34:18.613Z,17.60
2023-03-02T15:39:27.700Z,14.60
2023-03-02T15:44:38.391Z,15.20
2023-03-02T15:50:02.251Z,14.70
2023-03-02T15:55:06.028Z,14.70
2023-03-02T16:00:35.308Z,14.50
2023-03-02T16:05:38.801Z,16.20
2023-03-02T16:11:02.480Z,17.60
2023-03-02T16:16:25.459Z,17.00
2023-03-02T16:21:29.110Z,19.90
2023-03-02T16:26:53.597Z,26.40
2023-03-02T16:32:06.670Z,23.50
2023-03-02T16:37:20.311Z,23.60
2023-03-02T16:42:23.770Z,22.20
2023-03-02T16:47:49.022Z,22.20
2023-03-02T16:53:15.216Z,20.50
2023-03-02T16:58:21.198Z,25.00
2023-03-02T17:03:40.993Z,24.50
2023-03-02T17:08:54.622Z,23.80
2023-03-02T17:13:57.867Z,22.80
2023-03-02T17:19:08.802Z,23.70
2023-03-02T17:24:45.473Z,29.80
2023-03-02T17:30:01.275Z,28.90
2023-03-02T17:35:17.074Z,26.70
2023-03-02T17:40:20.616Z,27.70
2023-03-02T17:45:44.569Z,28.50
2023-03-02T17:52:08.672Z,28.50
2023-03-02T17:57:55.596Z,28.70
2023-03-02T18:03:45.312Z,29.90
2023-03-02T18:08:50.708Z,29.20
2023-03-02T18:14:05.675Z,30.80
2023-03-02T18:19:17.477Z,28.60
2023-03-02T18:24:20.813Z,30.90
2023-03-02T18:29:27.707Z,30.60
2023-03-02T18:34:53.421Z,31.40
2023-03-02T18:40:00.597Z,28.80
2023-03-02T18:45:27.477Z,28.00
2023-03-02T18:50:39.909Z,28.50
2023-03-02T18:55:45.889Z,28.40
2023-03-02T19:01:12.697Z,27.40
2023-03-02T19:06:16.634Z,26.80
2023-03-02T19:11:30.536Z,28.60
2023-03-02T19:16:40.371Z,29.10
2023-03-02T19:21:54.000Z,28.30
2023-03-02T19:26:57.431Z,25.60
2023-03-02T19:32:06.515Z,27.30
2023-03-02T19:37:33.299Z,29.50
2023-03-02T19:43:22.985Z,29.20
2023-03-02T19:49:06.851Z,30.50
2023-03-02T19:54:10.248Z,32.80
2023-03-02T19:59:13.631Z,33.10
2023-03-02T20:04:18.264Z,33.20
2023-03-02T20:09:21.825Z,35.00
2023-03-02T20:14:36.366Z,34.20
2023-03-02T20:19:39.720Z,36.90
2023-03-02T20:24:43.803Z,36.00
2023-03-02T20:29:49.863Z,37.30
2023-03-02T20:35:23.841Z,38.30
2023-03-02T20:40:28.219Z,42.00
2023-03-02T20:45:46.840Z,43.90
2023-03-02T20:50:53.405Z,43.60
2023-03-02T20:56:07.245Z,42.60
2023-03-02T21:01:39.752Z,44.50
2023-03-02T21:07:06.693Z,47.30
2023-03-02T21:12:30.743Z,46.90
2023-03-02T21:17:34.466Z,49.10
2023-03-02T21:23:41.654Z,48.50
2023-03-02T21:30:13.019Z,49.10
2023-03-02T21:35:40.936Z,50.20
2023-03-02T21:40:47.099Z,52.50
2023-03-02T21:45:51.589Z,53.50
2023-03-02T21:50:58.402Z,53.20
2023-03-02T21:56:10.713Z,55.90
2023-03-02T22:01:26.147Z,56.40
2023-03-02T22:06:54.682Z,54.80
2023-03-02T22:12:18.527Z,58.00
2023-03-02T22:18:15.762Z,57.70
2023-03-02T22:24:06.761Z,59.10
2023-03-02T22:29:52.357Z,59.60
2023-03-02T22:35:22.125Z,57.50
2023-03-02T22:40:35.696Z,58.40
2023-03-02T22:46:15.574Z,58.20
2023-03-02T22:52:10.440Z,57.00
2023-03-02T22:57:57.535Z,57.50
2023-03-02T23:03:25.303Z,58.30
2023-03-02T23:08:31.738Z,59.80
2023-03-02T23:13:40.688Z,61.40
2023-03-02T23:18:57.484Z,59.20
2023-03-02T23:24:10.842Z,57.40
2023-03-02T23:29:48.518Z,57.00
2023-03-02T23:35:05.133Z,59.20
2023-03-02T23:40:12.098Z,58.00
2023-03-02T23:45:35.570Z,58.10
2023-03-02T23:51:21.584Z,57.50
2023-03-02T23:56:45.069Z,56.30
